sensor_id;sensor_type;location;lat;lon;timestamp;P1;durP1;ratioP1;P2;durP2;ratioP2
35917;SDS011;22011;59.912;30.300;2022-09-30T00:01:03;6.00;;;4.10;;
35917;SDS011;22011;59.912;30.300;2022-09-30T00:03:31;5.50;;;3.72;;
35917;SDS011;22011;59.912;30.300;2022-09-30T00:05:59;6.60;;;3.67;;
35917;SDS011;22011;59.912;30.300;2022-09-30T00:08:27;4.15;;;3.65;;
35917;SDS011;22011;59.912;30.300;2022-09-30T00:10:58;4.40;;;3.95;;
35917;SDS011;22011;59.912;30.300;2022-09-30T00:13:28;9.65;;;3.78;;
35917;SDS011;22011;59.912;30.300;2022-09-30T00:15:56;6.57;;;3.80;;
35917;SDS011;22011;59.912;30.300;2022-09-30T00:18:25;5.97;;;4.18;;
35917;SDS011;22011;59.912;30.300;2022-09-30T00:20:54;6.20;;;3.88;;
35917;SDS011;22011;59.912;30.300;2022-09-30T00:23:21;4.60;;;3.97;;
35917;SDS011;22011;59.912;30.300;2022-09-30T00:25:50;5.60;;;4.88;;
35917;SDS011;22011;59.912;30.300;2022-09-30T00:28:17;6.25;;;4.35;;
35917;SDS011;22011;59.912;30.300;2022-09-30T00:30:45;5.72;;;4.18;;
35917;SDS011;22011;59.912;30.300;2022-09-30T00:33:12;4.88;;;3.90;;
35917;SDS011;22011;59.912;30.300;2022-09-30T00:35:41;4.47;;;4.03;;
35917;SDS011;22011;59.912;30.300;2022-09-30T00:38:08;8.57;;;4.53;;
35917;SDS011;22011;59.912;30.300;2022-09-30T00:40:36;7.22;;;3.95;;
35917;SDS011;22011;59.912;30.300;2022-09-30T00:43:04;5.47;;;4.28;;
35917;SDS011;22011;59.912;30.300;2022-09-30T00:45:39;4.07;;;3.60;;
35917;SDS011;22011;59.912;30.300;2022-09-30T00:48:16;5.40;;;4.03;;
35917;SDS011;22011;59.912;30.300;2022-09-30T00:50:48;4.70;;;3.95;;
35917;SDS011;22011;59.912;30.300;2022-09-30T00:53:21;4.65;;;3.83;;
35917;SDS011;22011;59.912;30.300;2022-09-30T00:55:56;5.40;;;3.92;;
35917;SDS011;22011;59.912;30.300;2022-09-30T00:58:27;5.65;;;4.10;;
35917;SDS011;22011;59.912;30.300;2022-09-30T01:00:57;4.78;;;3.80;;
35917;SDS011;22011;59.912;30.300;2022-09-30T01:03:28;6.90;;;4.22;;
35917;SDS011;22011;59.912;30.300;2022-09-30T01:05:59;4.88;;;4.00;;
35917;SDS011;22011;59.912;30.300;2022-09-30T01:08:27;4.20;;;3.80;;
35917;SDS011;22011;59.912;30.300;2022-09-30T01:10:58;5.43;;;3.78;;
35917;SDS011;22011;59.912;30.300;2022-09-30T01:13:26;4.30;;;3.33;;
35917;SDS011;22011;59.912;30.300;2022-09-30T01:18:36;4.93;;;3.42;;
35917;SDS011;22011;59.912;30.300;2022-09-30T01:21:30;4.82;;;3.90;;
35917;SDS011;22011;59.912;30.300;2022-09-30T01:24:21;4.53;;;3.75;;
35917;SDS011;22011;59.912;30.300;2022-09-30T01:27:09;4.32;;;3.63;;
35917;SDS011;22011;59.912;30.300;2022-09-30T01:29:48;3.95;;;3.55;;
35917;SDS011;22011;59.912;30.300;2022-09-30T01:32:37;5.72;;;4.00;;
35917;SDS011;22011;59.912;30.300;2022-09-30T01:35:16;4.45;;;4.05;;
35917;SDS011;22011;59.912;30.300;2022-09-30T01:37:54;7.95;;;3.75;;
35917;SDS011;22011;59.912;30.300;2022-09-30T01:40:31;4.85;;;4.10;;
35917;SDS011;22011;59.912;30.300;2022-09-30T01:43:06;4.80;;;3.55;;
35917;SDS011;22011;59.912;30.300;2022-09-30T01:45:39;4.50;;;3.85;;
35917;SDS011;22011;59.912;30.300;2022-09-30T01:48:14;5.30;;;4.55;;
35917;SDS011;22011;59.912;30.300;2022-09-30T01:50:48;5.30;;;3.88;;
35917;SDS011;22011;59.912;30.300;2022-09-30T01:53:21;5.13;;;3.60;;
35917;SDS011;22011;59.912;30.300;2022-09-30T01:55:56;4.57;;;3.58;;
35917;SDS011;22011;59.912;30.300;2022-09-30T01:58:29;5.25;;;4.30;;
35917;SDS011;22011;59.912;30.300;2022-09-30T02:01:06;6.00;;;4.32;;
35917;SDS011;22011;59.912;30.300;2022-09-30T02:03:42;4.90;;;4.00;;
35917;SDS011;22011;59.912;30.300;2022-09-30T02:06:16;4.25;;;3.78;;
35917;SDS011;22011;59.912;30.300;2022-09-30T02:08:49;4.57;;;4.18;;
35917;SDS011;22011;59.912;30.300;2022-09-30T02:11:21;5.63;;;4.28;;
35917;SDS011;22011;59.912;30.300;2022-09-30T02:13:53;8.43;;;4.20;;
35917;SDS011;22011;59.912;30.300;2022-09-30T02:16:28;5.57;;;4.97;;
35917;SDS011;22011;59.912;30.300;2022-09-30T02:19:07;5.55;;;5.00;;
35917;SDS011;22011;59.912;30.300;2022-09-30T02:21:41;5.97;;;4.80;;
35917;SDS011;22011;59.912;30.300;2022-09-30T02:24:14;7.95;;;5.38;;
35917;SDS011;22011;59.912;30.300;2022-09-30T02:26:44;5.88;;;4.50;;
35917;SDS011;22011;59.912;30.300;2022-09-30T02:29:14;5.43;;;4.93;;
35917;SDS011;22011;59.912;30.300;2022-09-30T02:31:47;5.45;;;4.95;;
35917;SDS011;22011;59.912;30.300;2022-09-30T02:34:20;6.13;;;5.40;;
35917;SDS011;22011;59.912;30.300;2022-09-30T02:36:53;5.32;;;4.78;;
35917;SDS011;22011;59.912;30.300;2022-09-30T02:39:27;7.82;;;5.20;;
35917;SDS011;22011;59.912;30.300;2022-09-30T02:42:02;9.13;;;5.60;;
35917;SDS011;22011;59.912;30.300;2022-09-30T02:44:36;5.57;;;4.88;;
35917;SDS011;22011;59.912;30.300;2022-09-30T02:47:08;7.88;;;5.20;;
35917;SDS011;22011;59.912;30.300;2022-09-30T02:49:41;6.43;;;5.50;;
35917;SDS011;22011;59.912;30.300;2022-09-30T02:52:18;8.93;;;6.97;;
35917;SDS011;22011;59.912;30.300;2022-09-30T02:54:52;6.05;;;5.18;;
35917;SDS011;22011;59.912;30.300;2022-09-30T02:57:33;6.22;;;5.63;;
35917;SDS011;22011;59.912;30.300;2022-09-30T03:00:06;7.45;;;5.50;;
35917;SDS011;22011;59.912;30.300;2022-09-30T03:02:35;7.10;;;5.85;;
35917;SDS011;22011;59.912;30.300;2022-09-30T03:05:04;6.55;;;5.72;;
35917;SDS011;22011;59.912;30.300;2022-09-30T03:07:32;6.93;;;5.90;;
35917;SDS011;22011;59.912;30.300;2022-09-30T03:10:00;6.22;;;5.55;;
35917;SDS011;22011;59.912;30.300;2022-09-30T03:12:38;8.32;;;5.07;;
35917;SDS011;22011;59.912;30.300;2022-09-30T03:15:25;6.60;;;5.45;;
35917;SDS011;22011;59.912;30.300;2022-09-30T03:18:08;7.53;;;5.50;;
35917;SDS011;22011;59.912;30.300;2022-09-30T03:21:01;6.05;;;5.45;;
35917;SDS011;22011;59.912;30.300;2022-09-30T03:23:38;6.25;;;5.65;;
35917;SDS011;22011;59.912;30.300;2022-09-30T03:26:32;8.80;;;5.65;;
35917;SDS011;22011;59.912;30.300;2022-09-30T03:29:08;6.03;;;5.07;;
35917;SDS011;22011;59.912;30.300;2022-09-30T03:31:48;5.43;;;4.93;;
35917;SDS011;22011;59.912;30.300;2022-09-30T03:34:24;8.45;;;5.00;;
35917;SDS011;22011;59.912;30.300;2022-09-30T03:37:01;7.40;;;5.53;;
35917;SDS011;22011;59.912;30.300;2022-09-30T03:39:38;7.18;;;5.00;;
35917;SDS011;22011;59.912;30.300;2022-09-30T03:42:17;6.22;;;4.82;;
35917;SDS011;22011;59.912;30.300;2022-09-30T03:44:53;5.38;;;4.88;;
35917;SDS011;22011;59.912;30.300;2022-09-30T03:47:27;5.70;;;5.10;;
35917;SDS011;22011;59.912;30.300;2022-09-30T03:49:59;7.13;;;5.38;;
35917;SDS011;22011;59.912;30.300;2022-09-30T03:52:34;6.07;;;5.00;;
35917;SDS011;22011;59.912;30.300;2022-09-30T03:55:03;5.78;;;4.53;;
35917;SDS011;22011;59.912;30.300;2022-09-30T03:57:32;6.28;;;5.47;;
35917;SDS011;22011;59.912;30.300;2022-09-30T04:00:00;8.05;;;5.30;;
35917;SDS011;22011;59.912;30.300;2022-09-30T04:02:30;6.70;;;5.85;;
35917;SDS011;22011;59.912;30.300;2022-09-30T04:04:59;8.98;;;6.00;;
35917;SDS011;22011;59.912;30.300;2022-09-30T04:07:27;7.82;;;5.63;;
35917;SDS011;22011;59.912;30.300;2022-09-30T04:09:55;6.88;;;5.50;;
35917;SDS011;22011;59.912;30.300;2022-09-30T04:12:23;5.22;;;4.72;;
35917;SDS011;22011;59.912;30.300;2022-09-30T04:14:51;5.80;;;4.82;;
35917;SDS011;22011;59.912;30.300;2022-09-30T04:17:18;6.05;;;4.75;;
35917;SDS011;22011;59.912;30.300;2022-09-30T04:19:46;6.45;;;5.50;;
35917;SDS011;22011;59.912;30.300;2022-09-30T04:22:13;11.13;;;5.25;;
35917;SDS011;22011;59.912;30.300;2022-09-30T04:24:41;4.95;;;4.45;;
35917;SDS011;22011;59.912;30.300;2022-09-30T04:27:11;6.05;;;4.85;;
35917;SDS011;22011;59.912;30.300;2022-09-30T04:29:38;5.55;;;4.90;;
35917;SDS011;22011;59.912;30.300;2022-09-30T04:32:06;4.88;;;4.30;;
35917;SDS011;22011;59.912;30.300;2022-09-30T04:34:33;6.72;;;4.28;;
35917;SDS011;22011;59.912;30.300;2022-09-30T04:37:01;5.43;;;4.43;;
35917;SDS011;22011;59.912;30.300;2022-09-30T04:39:29;5.22;;;4.68;;
35917;SDS011;22011;59.912;30.300;2022-09-30T04:41:56;4.63;;;4.10;;
35917;SDS011;22011;59.912;30.300;2022-09-30T04:44:25;4.75;;;4.30;;
35917;SDS011;22011;59.912;30.300;2022-09-30T04:46:53;5.43;;;4.38;;
35917;SDS011;22011;59.912;30.300;2022-09-30T04:49:20;5.20;;;4.70;;
35917;SDS011;22011;59.912;30.300;2022-09-30T04:51:48;8.05;;;5.57;;
35917;SDS011;22011;59.912;30.300;2022-09-30T04:54:16;5.93;;;5.32;;
35917;SDS011;22011;59.912;30.300;2022-09-30T04:56:44;6.32;;;5.20;;
35917;SDS011;22011;59.912;30.300;2022-09-30T04:59:11;9.15;;;5.40;;
35917;SDS011;22011;59.912;30.300;2022-09-30T05:01:40;6.45;;;5.43;;
35917;SDS011;22011;59.912;30.300;2022-09-30T05:04:09;5.65;;;4.93;;
35917;SDS011;22011;59.912;30.300;2022-09-30T05:06:37;6.43;;;5.40;;
35917;SDS011;22011;59.912;30.300;2022-09-30T05:09:05;5.85;;;5.22;;
35917;SDS011;22011;59.912;30.300;2022-09-30T05:11:33;7.35;;;5.43;;
35917;SDS011;22011;59.912;30.300;2022-09-30T05:14:05;7.22;;;5.03;;
35917;SDS011;22011;59.912;30.300;2022-09-30T05:16:33;5.93;;;5.43;;
35917;SDS011;22011;59.912;30.300;2022-09-30T05:19:03;7.15;;;5.72;;
35917;SDS011;22011;59.912;30.300;2022-09-30T05:21:31;5.90;;;5.18;;
35917;SDS011;22011;59.912;30.300;2022-09-30T05:23:59;6.07;;;5.20;;
35917;SDS011;22011;59.912;30.300;2022-09-30T05:26:26;8.82;;;4.55;;
35917;SDS011;22011;59.912;30.300;2022-09-30T05:28:54;7.25;;;5.95;;
35917;SDS011;22011;59.912;30.300;2022-09-30T05:31:21;8.02;;;5.35;;
35917;SDS011;22011;59.912;30.300;2022-09-30T05:33:49;7.00;;;5.10;;
35917;SDS011;22011;59.912;30.300;2022-09-30T05:36:18;7.57;;;4.72;;
35917;SDS011;22011;59.912;30.300;2022-09-30T05:38:45;4.80;;;4.30;;
35917;SDS011;22011;59.912;30.300;2022-09-30T05:41:16;5.43;;;4.20;;
35917;SDS011;22011;59.912;30.300;2022-09-30T05:43:45;5.47;;;4.32;;
35917;SDS011;22011;59.912;30.300;2022-09-30T05:46:13;7.65;;;4.93;;
35917;SDS011;22011;59.912;30.300;2022-09-30T05:48:41;11.48;;;4.45;;
35917;SDS011;22011;59.912;30.300;2022-09-30T05:51:08;6.38;;;4.53;;
35917;SDS011;22011;59.912;30.300;2022-09-30T05:53:37;5.20;;;4.20;;
35917;SDS011;22011;59.912;30.300;2022-09-30T05:56:06;4.20;;;3.63;;
35917;SDS011;22011;59.912;30.300;2022-09-30T05:58:34;5.00;;;4.28;;
35917;SDS011;22011;59.912;30.300;2022-09-30T06:01:03;11.73;;;4.22;;
35917;SDS011;22011;59.912;30.300;2022-09-30T06:03:33;5.28;;;4.68;;
35917;SDS011;22011;59.912;30.300;2022-09-30T06:06:01;6.00;;;4.30;;
35917;SDS011;22011;59.912;30.300;2022-09-30T06:08:28;7.47;;;4.30;;
35917;SDS011;22011;59.912;30.300;2022-09-30T06:10:58;10.02;;;5.13;;
35917;SDS011;22011;59.912;30.300;2022-09-30T06:13:25;7.15;;;4.65;;
35917;SDS011;22011;59.912;30.300;2022-09-30T06:15:55;5.30;;;4.00;;
35917;SDS011;22011;59.912;30.300;2022-09-30T06:18:22;9.15;;;3.83;;
35917;SDS011;22011;59.912;30.300;2022-09-30T06:20:54;11.38;;;4.55;;
35917;SDS011;22011;59.912;30.300;2022-09-30T06:23:23;12.32;;;4.80;;
35917;SDS011;22011;59.912;30.300;2022-09-30T06:25:51;7.25;;;4.22;;
35917;SDS011;22011;59.912;30.300;2022-09-30T06:28:21;8.95;;;4.57;;
35917;SDS011;22011;59.912;30.300;2022-09-30T06:30:49;13.20;;;4.05;;
35917;SDS011;22011;59.912;30.300;2022-09-30T06:33:17;6.40;;;4.43;;
35917;SDS011;22011;59.912;30.300;2022-09-30T06:35:45;4.97;;;4.03;;
35917;SDS011;22011;59.912;30.300;2022-09-30T06:38:13;9.65;;;4.40;;
35917;SDS011;22011;59.912;30.300;2022-09-30T06:40:42;5.53;;;4.28;;
35917;SDS011;22011;59.912;30.300;2022-09-30T06:43:09;8.20;;;6.47;;
35917;SDS011;22011;59.912;30.300;2022-09-30T06:45:38;9.38;;;4.60;;
35917;SDS011;22011;59.912;30.300;2022-09-30T06:48:06;4.88;;;4.38;;
35917;SDS011;22011;59.912;30.300;2022-09-30T06:50:34;6.47;;;4.88;;
35917;SDS011;22011;59.912;30.300;2022-09-30T06:53:05;6.35;;;5.20;;
35917;SDS011;22011;59.912;30.300;2022-09-30T06:55:34;7.05;;;4.32;;
35917;SDS011;22011;59.912;30.300;2022-09-30T06:58:04;6.30;;;4.72;;
35917;SDS011;22011;59.912;30.300;2022-09-30T07:00:34;5.10;;;3.35;;
35917;SDS011;22011;59.912;30.300;2022-09-30T07:03:03;5.47;;;4.22;;
35917;SDS011;22011;59.912;30.300;2022-09-30T07:05:34;5.20;;;4.70;;
35917;SDS011;22011;59.912;30.300;2022-09-30T07:08:02;6.53;;;4.68;;
35917;SDS011;22011;59.912;30.300;2022-09-30T07:10:30;6.45;;;4.20;;
35917;SDS011;22011;59.912;30.300;2022-09-30T07:12:58;9.02;;;4.63;;
35917;SDS011;22011;59.912;30.300;2022-09-30T07:15:27;5.38;;;4.20;;
35917;SDS011;22011;59.912;30.300;2022-09-30T07:17:54;10.75;;;4.90;;
35917;SDS011;22011;59.912;30.300;2022-09-30T07:20:23;5.38;;;4.45;;
35917;SDS011;22011;59.912;30.300;2022-09-30T07:22:51;9.88;;;4.93;;
35917;SDS011;22011;59.912;30.300;2022-09-30T07:25:19;6.07;;;4.05;;
35917;SDS011;22011;59.912;30.300;2022-09-30T07:27:46;10.50;;;5.18;;
35917;SDS011;22011;59.912;30.300;2022-09-30T07:30:13;6.38;;;3.95;;
35917;SDS011;22011;59.912;30.300;2022-09-30T07:32:41;5.60;;;4.38;;
35917;SDS011;22011;59.912;30.300;2022-09-30T07:35:09;8.20;;;3.88;;
35917;SDS011;22011;59.912;30.300;2022-09-30T07:37:38;7.88;;;4.07;;
35917;SDS011;22011;59.912;30.300;2022-09-30T07:40:06;6.53;;;4.35;;
35917;SDS011;22011;59.912;30.300;2022-09-30T07:42:35;8.20;;;4.80;;
35917;SDS011;22011;59.912;30.300;2022-09-30T07:45:04;6.22;;;4.13;;
35917;SDS011;22011;59.912;30.300;2022-09-30T07:47:32;5.80;;;4.85;;
35917;SDS011;22011;59.912;30.300;2022-09-30T07:50:00;5.80;;;4.03;;
35917;SDS011;22011;59.912;30.300;2022-09-30T07:52:27;7.82;;;4.35;;
35917;SDS011;22011;59.912;30.300;2022-09-30T07:54:56;7.40;;;3.83;;
35917;SDS011;22011;59.912;30.300;2022-09-30T07:57:23;6.95;;;3.55;;
35917;SDS011;22011;59.912;30.300;2022-09-30T07:59:51;9.02;;;3.67;;
35917;SDS011;22011;59.912;30.300;2022-09-30T08:02:19;7.03;;;4.15;;
35917;SDS011;22011;59.912;30.300;2022-09-30T08:04:46;7.20;;;4.53;;
35917;SDS011;22011;59.912;30.300;2022-09-30T08:07:16;4.85;;;3.35;;
35917;SDS011;22011;59.912;30.300;2022-09-30T08:09:44;5.85;;;3.67;;
35917;SDS011;22011;59.912;30.300;2022-09-30T08:12:13;7.70;;;3.45;;
35917;SDS011;22011;59.912;30.300;2022-09-30T08:14:40;4.75;;;3.70;;
35917;SDS011;22011;59.912;30.300;2022-09-30T08:17:09;5.97;;;3.92;;
35917;SDS011;22011;59.912;30.300;2022-09-30T08:19:36;8.35;;;3.10;;
35917;SDS011;22011;59.912;30.300;2022-09-30T08:22:08;4.60;;;3.30;;
35917;SDS011;22011;59.912;30.300;2022-09-30T08:24:38;4.35;;;3.88;;
35917;SDS011;22011;59.912;30.300;2022-09-30T08:27:06;5.13;;;3.50;;
35917;SDS011;22011;59.912;30.300;2022-09-30T08:29:34;4.68;;;3.75;;
35917;SDS011;22011;59.912;30.300;2022-09-30T08:32:02;4.18;;;3.40;;
35917;SDS011;22011;59.912;30.300;2022-09-30T08:34:29;5.60;;;4.20;;
35917;SDS011;22011;59.912;30.300;2022-09-30T08:37:00;14.35;;;3.50;;
35917;SDS011;22011;59.912;30.300;2022-09-30T08:39:27;5.35;;;3.05;;
35917;SDS011;22011;59.912;30.300;2022-09-30T08:42:07;5.05;;;3.08;;
35917;SDS011;22011;59.912;30.300;2022-09-30T08:44:50;3.55;;;2.63;;
35917;SDS011;22011;59.912;30.300;2022-09-30T08:47:32;7.40;;;2.83;;
35917;SDS011;22011;59.912;30.300;2022-09-30T08:50:12;5.82;;;3.28;;
35917;SDS011;22011;59.912;30.300;2022-09-30T08:52:46;4.13;;;3.33;;
35917;SDS011;22011;59.912;30.300;2022-09-30T08:55:18;4.55;;;3.67;;
35917;SDS011;22011;59.912;30.300;2022-09-30T08:57:47;5.05;;;3.15;;
35917;SDS011;22011;59.912;30.300;2022-09-30T09:00:18;5.75;;;3.35;;
35917;SDS011;22011;59.912;30.300;2022-09-30T09:02:48;6.05;;;3.17;;
35917;SDS011;22011;59.912;30.300;2022-09-30T09:05:23;8.55;;;3.10;;
35917;SDS011;22011;59.912;30.300;2022-09-30T09:08:00;4.88;;;3.28;;
35917;SDS011;22011;59.912;30.300;2022-09-30T09:10:36;5.50;;;3.00;;
35917;SDS011;22011;59.912;30.300;2022-09-30T09:13:12;4.70;;;3.35;;
35917;SDS011;22011;59.912;30.300;2022-09-30T09:15:58;7.82;;;4.00;;
35917;SDS011;22011;59.912;30.300;2022-09-30T09:21:27;7.53;;;4.55;;
35917;SDS011;22011;59.912;30.300;2022-09-30T09:24:10;5.47;;;3.15;;
35917;SDS011;22011;59.912;30.300;2022-09-30T09:26:41;4.47;;;3.55;;
35917;SDS011;22011;59.912;30.300;2022-09-30T09:31:59;8.77;;;4.32;;
35917;SDS011;22011;59.912;30.300;2022-09-30T09:34:28;8.57;;;5.13;;
35917;SDS011;22011;59.912;30.300;2022-09-30T09:37:00;8.10;;;4.03;;
35917;SDS011;22011;59.912;30.300;2022-09-30T09:39:52;5.20;;;3.42;;
35917;SDS011;22011;59.912;30.300;2022-09-30T09:42:30;7.40;;;3.58;;
35917;SDS011;22011;59.912;30.300;2022-09-30T09:45:12;4.32;;;3.33;;
35917;SDS011;22011;59.912;30.300;2022-09-30T09:47:52;6.97;;;3.72;;
35917;SDS011;22011;59.912;30.300;2022-09-30T09:50:22;6.60;;;4.30;;
35917;SDS011;22011;59.912;30.300;2022-09-30T09:53:00;5.15;;;3.65;;
35917;SDS011;22011;59.912;30.300;2022-09-30T09:55:47;4.65;;;3.33;;
35917;SDS011;22011;59.912;30.300;2022-09-30T09:58:15;7.32;;;3.45;;
35917;SDS011;22011;59.912;30.300;2022-09-30T10:00:42;5.38;;;3.45;;
35917;SDS011;22011;59.912;30.300;2022-09-30T10:03:28;5.43;;;3.67;;
35917;SDS011;22011;59.912;30.300;2022-09-30T10:06:01;4.95;;;3.80;;
35917;SDS011;22011;59.912;30.300;2022-09-30T10:08:31;3.72;;;2.95;;
35917;SDS011;22011;59.912;30.300;2022-09-30T10:11:00;5.18;;;3.00;;
35917;SDS011;22011;59.912;30.300;2022-09-30T10:13:30;5.93;;;3.47;;
35917;SDS011;22011;59.912;30.300;2022-09-30T10:15:59;3.90;;;3.50;;
35917;SDS011;22011;59.912;30.300;2022-09-30T10:18:31;5.15;;;3.00;;
35917;SDS011;22011;59.912;30.300;2022-09-30T10:21:01;3.13;;;2.83;;
35917;SDS011;22011;59.912;30.300;2022-09-30T10:23:32;4.63;;;2.72;;
35917;SDS011;22011;59.912;30.300;2022-09-30T10:26:03;4.60;;;3.05;;
35917;SDS011;22011;59.912;30.300;2022-09-30T10:28:43;3.78;;;3.03;;
35917;SDS011;22011;59.912;30.300;2022-09-30T10:31:13;3.47;;;2.30;;
35917;SDS011;22011;59.912;30.300;2022-09-30T10:33:49;3.97;;;3.25;;
35917;SDS011;22011;59.912;30.300;2022-09-30T10:36:23;5.45;;;3.22;;
35917;SDS011;22011;59.912;30.300;2022-09-30T10:38:58;7.00;;;3.17;;
35917;SDS011;22011;59.912;30.300;2022-09-30T10:41:27;4.45;;;3.75;;
35917;SDS011;22011;59.912;30.300;2022-09-30T10:43:58;5.75;;;4.20;;
35917;SDS011;22011;59.912;30.300;2022-09-30T10:46:28;6.75;;;3.50;;
35917;SDS011;22011;59.912;30.300;2022-09-30T10:48:59;4.53;;;3.47;;
35917;SDS011;22011;59.912;30.300;2022-09-30T10:51:34;7.93;;;3.72;;
35917;SDS011;22011;59.912;30.300;2022-09-30T10:54:03;5.18;;;3.35;;
35917;SDS011;22011;59.912;30.300;2022-09-30T10:56:41;7.90;;;3.15;;
35917;SDS011;22011;59.912;30.300;2022-09-30T10:59:15;3.63;;;2.75;;
35917;SDS011;22011;59.912;30.300;2022-09-30T11:01:52;4.18;;;3.00;;
35917;SDS011;22011;59.912;30.300;2022-09-30T11:04:25;6.00;;;3.65;;
35917;SDS011;22011;59.912;30.300;2022-09-30T11:06:59;6.95;;;3.13;;
35917;SDS011;22011;59.912;30.300;2022-09-30T11:09:37;5.63;;;3.40;;
35917;SDS011;22011;59.912;30.300;2022-09-30T11:12:13;9.98;;;3.70;;
35917;SDS011;22011;59.912;30.300;2022-09-30T11:14:47;10.30;;;3.60;;
35917;SDS011;22011;59.912;30.300;2022-09-30T11:17:26;10.50;;;3.55;;
35917;SDS011;22011;59.912;30.300;2022-09-30T11:20:04;6.93;;;3.40;;
35917;SDS011;22011;59.912;30.300;2022-09-30T11:22:41;8.23;;;4.35;;
35917;SDS011;22011;59.912;30.300;2022-09-30T11:25:13;5.63;;;4.20;;
35917;SDS011;22011;59.912;30.300;2022-09-30T11:27:44;6.13;;;4.30;;
35917;SDS011;22011;59.912;30.300;2022-09-30T11:30:24;7.20;;;4.20;;
35917;SDS011;22011;59.912;30.300;2022-09-30T11:33:02;10.45;;;4.18;;
35917;SDS011;22011;59.912;30.300;2022-09-30T11:35:53;10.18;;;4.30;;
35917;SDS011;22011;59.912;30.300;2022-09-30T11:38:30;3.92;;;3.13;;
35917;SDS011;22011;59.912;30.300;2022-09-30T11:41:10;7.07;;;3.15;;
35917;SDS011;22011;59.912;30.300;2022-09-30T11:43:48;9.80;;;3.45;;
35917;SDS011;22011;59.912;30.300;2022-09-30T11:49:24;14.27;;;3.33;;
35917;SDS011;22011;59.912;30.300;2022-09-30T11:52:04;8.32;;;3.58;;
35917;SDS011;22011;59.912;30.300;2022-09-30T11:54:44;5.28;;;3.47;;
35917;SDS011;22011;59.912;30.300;2022-09-30T11:57:24;6.80;;;2.75;;
35917;SDS011;22011;59.912;30.300;2022-09-30T11:59:58;7.30;;;2.92;;
35917;SDS011;22011;59.912;30.300;2022-09-30T12:02:38;6.63;;;4.50;;
35917;SDS011;22011;59.912;30.300;2022-09-30T12:05:09;10.75;;;3.38;;
35917;SDS011;22011;59.912;30.300;2022-09-30T12:07:45;6.45;;;3.30;;
35917;SDS011;22011;59.912;30.300;2022-09-30T12:10:17;6.95;;;4.18;;
35917;SDS011;22011;59.912;30.300;2022-09-30T12:12:50;7.18;;;4.22;;
35917;SDS011;22011;59.912;30.300;2022-09-30T12:15:22;12.45;;;4.25;;
35917;SDS011;22011;59.912;30.300;2022-09-30T12:17:53;4.53;;;3.20;;
35917;SDS011;22011;59.912;30.300;2022-09-30T12:20:26;9.35;;;3.65;;
35917;SDS011;22011;59.912;30.300;2022-09-30T12:23:00;6.68;;;3.33;;
35917;SDS011;22011;59.912;30.300;2022-09-30T12:25:38;3.28;;;2.08;;
35917;SDS011;22011;59.912;30.300;2022-09-30T12:28:13;3.88;;;1.77;;
35917;SDS011;22011;59.912;30.300;2022-09-30T12:31:17;2.10;;;0.80;;
35917;SDS011;22011;59.912;30.300;2022-09-30T12:34:11;2.05;;;1.20;;
35917;SDS011;22011;59.912;30.300;2022-09-30T12:36:55;1.42;;;1.15;;
35917;SDS011;22011;59.912;30.300;2022-09-30T12:39:40;2.80;;;1.85;;
35917;SDS011;22011;59.912;30.300;2022-09-30T12:42:40;2.25;;;1.60;;
35917;SDS011;22011;59.912;30.300;2022-09-30T12:45:32;3.30;;;2.00;;
35917;SDS011;22011;59.912;30.300;2022-09-30T12:48:07;6.18;;;3.67;;
35917;SDS011;22011;59.912;30.300;2022-09-30T12:50:40;5.22;;;4.00;;
35917;SDS011;22011;59.912;30.300;2022-09-30T12:53:12;8.60;;;4.53;;
35917;SDS011;22011;59.912;30.300;2022-09-30T12:55:46;12.10;;;7.20;;
35917;SDS011;22011;59.912;30.300;2022-09-30T12:58:16;14.20;;;8.37;;
35917;SDS011;22011;59.912;30.300;2022-09-30T13:00:57;14.25;;;8.40;;
35917;SDS011;22011;59.912;30.300;2022-09-30T13:03:42;12.27;;;7.05;;
35917;SDS011;22011;59.912;30.300;2022-09-30T13:06:15;10.38;;;6.00;;
35917;SDS011;22011;59.912;30.300;2022-09-30T13:08:46;12.18;;;6.03;;
35917;SDS011;22011;59.912;30.300;2022-09-30T13:11:34;11.05;;;4.65;;
35917;SDS011;22011;59.912;30.300;2022-09-30T13:17:03;15.48;;;6.53;;
35917;SDS011;22011;59.912;30.300;2022-09-30T13:19:54;15.57;;;6.75;;
35917;SDS011;22011;59.912;30.300;2022-09-30T13:22:40;18.27;;;8.98;;
35917;SDS011;22011;59.912;30.300;2022-09-30T13:25:13;19.65;;;8.30;;
35917;SDS011;22011;59.912;30.300;2022-09-30T13:27:43;14.40;;;6.70;;
35917;SDS011;22011;59.912;30.300;2022-09-30T13:33:05;10.50;;;5.18;;
35917;SDS011;22011;59.912;30.300;2022-09-30T13:36:24;7.70;;;3.97;;
35917;SDS011;22011;59.912;30.300;2022-09-30T13:39:16;7.50;;;4.10;;
35917;SDS011;22011;59.912;30.300;2022-09-30T13:41:47;11.15;;;5.30;;
35917;SDS011;22011;59.912;30.300;2022-09-30T13:44:25;12.35;;;5.85;;
35917;SDS011;22011;59.912;30.300;2022-09-30T13:46:59;20.35;;;7.18;;
35917;SDS011;22011;59.912;30.300;2022-09-30T13:49:34;11.20;;;5.40;;
35917;SDS011;22011;59.912;30.300;2022-09-30T13:52:13;9.30;;;5.05;;
35917;SDS011;22011;59.912;30.300;2022-09-30T13:54:46;6.80;;;3.70;;
35917;SDS011;22011;59.912;30.300;2022-09-30T13:57:17;6.80;;;3.80;;
35917;SDS011;22011;59.912;30.300;2022-09-30T13:59:53;10.25;;;3.78;;
35917;SDS011;22011;59.912;30.300;2022-09-30T14:02:43;6.85;;;3.35;;
35917;SDS011;22011;59.912;30.300;2022-09-30T14:05:34;5.25;;;2.72;;
35917;SDS011;22011;59.912;30.300;2022-09-30T14:08:30;4.43;;;3.00;;
35917;SDS011;22011;59.912;30.300;2022-09-30T14:14:21;5.50;;;2.90;;
35917;SDS011;22011;59.912;30.300;2022-09-30T14:17:05;5.28;;;3.25;;
35917;SDS011;22011;59.912;30.300;2022-09-30T14:19:55;6.30;;;3.30;;
35917;SDS011;22011;59.912;30.300;2022-09-30T14:22:32;4.82;;;3.55;;
35917;SDS011;22011;59.912;30.300;2022-09-30T14:25:03;9.43;;;3.60;;
35917;SDS011;22011;59.912;30.300;2022-09-30T14:27:42;4.18;;;2.97;;
35917;SDS011;22011;59.912;30.300;2022-09-30T14:30:19;3.25;;;2.38;;
35917;SDS011;22011;59.912;30.300;2022-09-30T14:32:51;3.72;;;3.17;;
35917;SDS011;22011;59.912;30.300;2022-09-30T14:35:21;3.70;;;2.95;;
35917;SDS011;22011;59.912;30.300;2022-09-30T14:37:50;3.33;;;2.65;;
35917;SDS011;22011;59.912;30.300;2022-09-30T14:40:23;8.20;;;3.05;;
35917;SDS011;22011;59.912;30.300;2022-09-30T14:42:52;4.05;;;2.92;;
35917;SDS011;22011;59.912;30.300;2022-09-30T14:45:26;5.35;;;3.22;;
35917;SDS011;22011;59.912;30.300;2022-09-30T14:50:27;4.80;;;3.08;;
35917;SDS011;22011;59.912;30.300;2022-09-30T14:53:00;4.80;;;2.90;;
35917;SDS011;22011;59.912;30.300;2022-09-30T14:55:28;6.00;;;3.03;;
35917;SDS011;22011;59.912;30.300;2022-09-30T15:00:48;11.93;;;3.67;;
35917;SDS011;22011;59.912;30.300;2022-09-30T15:03:26;9.65;;;3.47;;
35917;SDS011;22011;59.912;30.300;2022-09-30T15:05:55;7.25;;;3.20;;
35917;SDS011;22011;59.912;30.300;2022-09-30T15:08:23;6.85;;;4.15;;
35917;SDS011;22011;59.912;30.300;2022-09-30T15:10:54;6.75;;;3.22;;
35917;SDS011;22011;59.912;30.300;2022-09-30T15:13:22;5.90;;;3.20;;
35917;SDS011;22011;59.912;30.300;2022-09-30T15:15:52;5.80;;;3.28;;
35917;SDS011;22011;59.912;30.300;2022-09-30T15:18:23;6.20;;;3.65;;
35917;SDS011;22011;59.912;30.300;2022-09-30T15:23:33;5.97;;;3.72;;
35917;SDS011;22011;59.912;30.300;2022-09-30T15:26:04;7.57;;;4.28;;
35917;SDS011;22011;59.912;30.300;2022-09-30T15:28:32;7.78;;;3.50;;
35917;SDS011;22011;59.912;30.300;2022-09-30T15:31:02;6.22;;;3.58;;
35917;SDS011;22011;59.912;30.300;2022-09-30T15:33:32;9.40;;;3.80;;
35917;SDS011;22011;59.912;30.300;2022-09-30T15:36:04;5.65;;;3.58;;